sensor_id;sensor_type;location;lat;lon;timestamp;P1;durP1;ratioP1;P2;durP2;ratioP2
11187;SDS011;5650;52.700;7.306;2023-05-29T00:01:42;20.20;;;4.43;;
11187;SDS011;5650;52.700;7.306;2023-05-29T00:04:09;22.20;;;4.05;;
11187;SDS011;5650;52.700;7.306;2023-05-29T00:06:38;20.88;;;3.83;;
11187;SDS011;5650;52.700;7.306;2023-05-29T00:09:12;25.88;;;4.93;;
11187;SDS011;5650;52.700;7.306;2023-05-29T00:11:41;22.65;;;4.13;;
11187;SDS011;5650;52.700;7.306;2023-05-29T00:14:09;21.27;;;4.40;;
11187;SDS011;5650;52.700;7.306;2023-05-29T00:16:39;21.95;;;4.20;;
11187;SDS011;5650;52.700;7.306;2023-05-29T00:19:09;31.92;;;5.32;;
11187;SDS011;5650;52.700;7.306;2023-05-29T00:21:44;20.98;;;4.10;;
11187;SDS011;5650;52.700;7.306;2023-05-29T00:24:14;18.70;;;4.22;;
11187;SDS011;5650;52.700;7.306;2023-05-29T00:26:42;21.83;;;4.70;;
11187;SDS011;5650;52.700;7.306;2023-05-29T00:29:12;17.15;;;3.95;;
11187;SDS011;5650;52.700;7.306;2023-05-29T00:31:45;19.35;;;4.45;;
11187;SDS011;5650;52.700;7.306;2023-05-29T00:34:12;24.80;;;3.83;;
11187;SDS011;5650;52.700;7.306;2023-05-29T00:36:53;18.95;;;4.50;;
11187;SDS011;5650;52.700;7.306;2023-05-29T00:39:21;28.20;;;5.53;;
11187;SDS011;5650;52.700;7.306;2023-05-29T00:41:50;22.63;;;4.57;;
11187;SDS011;5650;52.700;7.306;2023-05-29T00:44:18;22.80;;;4.18;;
11187;SDS011;5650;52.700;7.306;2023-05-29T00:46:54;19.35;;;4.63;;
11187;SDS011;5650;52.700;7.306;2023-05-29T00:49:23;19.23;;;4.50;;
11187;SDS011;5650;52.700;7.306;2023-05-29T00:51:55;15.57;;;4.20;;
11187;SDS011;5650;52.700;7.306;2023-05-29T00:54:28;28.40;;;4.95;;
11187;SDS011;5650;52.700;7.306;2023-05-29T00:56:59;22.92;;;5.10;;
11187;SDS011;5650;52.700;7.306;2023-05-29T00:59:37;20.20;;;4.05;;
11187;SDS011;5650;52.700;7.306;2023-05-29T01:02:04;21.40;;;4.80;;
11187;SDS011;5650;52.700;7.306;2023-05-29T01:04:32;23.13;;;4.53;;
11187;SDS011;5650;52.700;7.306;2023-05-29T01:07:05;18.35;;;3.95;;
11187;SDS011;5650;52.700;7.306;2023-05-29T01:09:34;23.77;;;4.72;;
11187;SDS011;5650;52.700;7.306;2023-05-29T01:12:19;29.27;;;5.20;;
11187;SDS011;5650;52.700;7.306;2023-05-29T01:18:08;22.50;;;4.88;;
11187;SDS011;5650;52.700;7.306;2023-05-29T01:20:44;18.77;;;4.13;;
11187;SDS011;5650;52.700;7.306;2023-05-29T01:29:08;17.75;;;3.65;;
11187;SDS011;5650;52.700;7.306;2023-05-29T01:31:39;24.75;;;3.80;;
11187;SDS011;5650;52.700;7.306;2023-05-29T01:34:08;22.73;;;4.38;;
11187;SDS011;5650;52.700;7.306;2023-05-29T01:36:35;21.98;;;4.47;;
11187;SDS011;5650;52.700;7.306;2023-05-29T01:39:03;20.65;;;4.18;;
11187;SDS011;5650;52.700;7.306;2023-05-29T01:41:30;18.95;;;4.05;;
11187;SDS011;5650;52.700;7.306;2023-05-29T01:44:01;21.98;;;5.03;;
11187;SDS011;5650;52.700;7.306;2023-05-29T01:46:30;23.15;;;4.32;;
11187;SDS011;5650;52.700;7.306;2023-05-29T01:49:06;20.40;;;4.15;;
11187;SDS011;5650;52.700;7.306;2023-05-29T01:51:36;23.95;;;4.68;;
11187;SDS011;5650;52.700;7.306;2023-05-29T01:54:07;20.13;;;4.28;;
11187;SDS011;5650;52.700;7.306;2023-05-29T01:56:35;28.77;;;4.65;;
11187;SDS011;5650;52.700;7.306;2023-05-29T01:59:04;24.88;;;4.20;;
11187;SDS011;5650;52.700;7.306;2023-05-29T02:01:40;22.55;;;5.22;;
11187;SDS011;5650;52.700;7.306;2023-05-29T02:04:08;22.00;;;4.15;;
11187;SDS011;5650;52.700;7.306;2023-05-29T02:06:38;19.65;;;4.10;;
11187;SDS011;5650;52.700;7.306;2023-05-29T02:09:06;25.13;;;4.25;;
11187;SDS011;5650;52.700;7.306;2023-05-29T02:11:33;23.45;;;4.32;;
11187;SDS011;5650;52.700;7.306;2023-05-29T02:14:00;26.33;;;4.57;;
11187;SDS011;5650;52.700;7.306;2023-05-29T02:16:36;25.75;;;4.85;;
11187;SDS011;5650;52.700;7.306;2023-05-29T02:19:09;26.00;;;4.13;;
11187;SDS011;5650;52.700;7.306;2023-05-29T02:21:43;26.88;;;5.07;;
11187;SDS011;5650;52.700;7.306;2023-05-29T02:24:10;23.08;;;3.92;;
11187;SDS011;5650;52.700;7.306;2023-05-29T02:26:37;21.73;;;4.32;;
11187;SDS011;5650;52.700;7.306;2023-05-29T02:29:05;21.83;;;4.47;;
11187;SDS011;5650;52.700;7.306;2023-05-29T02:31:42;21.90;;;4.22;;
11187;SDS011;5650;52.700;7.306;2023-05-29T02:34:13;21.13;;;4.30;;
11187;SDS011;5650;52.700;7.306;2023-05-29T02:36:43;24.00;;;4.32;;
11187;SDS011;5650;52.700;7.306;2023-05-29T02:39:10;20.77;;;4.45;;
11187;SDS011;5650;52.700;7.306;2023-05-29T02:41:40;21.70;;;4.70;;
11187;SDS011;5650;52.700;7.306;2023-05-29T02:44:20;17.92;;;4.25;;
11187;SDS011;5650;52.700;7.306;2023-05-29T02:47:00;24.85;;;4.40;;
11187;SDS011;5650;52.700;7.306;2023-05-29T02:49:34;24.17;;;4.72;;
11187;SDS011;5650;52.700;7.306;2023-05-29T02:52:04;31.85;;;4.68;;
11187;SDS011;5650;52.700;7.306;2023-05-29T02:54:35;19.77;;;4.10;;
11187;SDS011;5650;52.700;7.306;2023-05-29T02:57:09;22.30;;;4.55;;
11187;SDS011;5650;52.700;7.306;2023-05-29T02:59:36;23.13;;;5.10;;
11187;SDS011;5650;52.700;7.306;2023-05-29T03:02:05;23.08;;;4.43;;
11187;SDS011;5650;52.700;7.306;2023-05-29T03:04:32;17.98;;;4.18;;
11187;SDS011;5650;52.700;7.306;2023-05-29T03:07:02;22.77;;;4.28;;
11187;SDS011;5650;52.700;7.306;2023-05-29T03:09:30;23.50;;;4.60;;
11187;SDS011;5650;52.700;7.306;2023-05-29T03:12:04;23.13;;;4.38;;
11187;SDS011;5650;52.700;7.306;2023-05-29T03:14:32;23.52;;;4.25;;
11187;SDS011;5650;52.700;7.306;2023-05-29T03:17:03;21.77;;;4.88;;
11187;SDS011;5650;52.700;7.306;2023-05-29T03:19:32;23.85;;;4.45;;
11187;SDS011;5650;52.700;7.306;2023-05-29T03:22:08;20.60;;;4.13;;
11187;SDS011;5650;52.700;7.306;2023-05-29T03:24:35;25.52;;;3.92;;
11187;SDS011;5650;52.700;7.306;2023-05-29T03:27:03;15.82;;;3.83;;
11187;SDS011;5650;52.700;7.306;2023-05-29T03:29:31;23.88;;;4.78;;
11187;SDS011;5650;52.700;7.306;2023-05-29T03:32:01;18.02;;;4.15;;
11187;SDS011;5650;52.700;7.306;2023-05-29T03:34:30;21.92;;;3.90;;
11187;SDS011;5650;52.700;7.306;2023-05-29T03:37:00;24.73;;;4.28;;
11187;SDS011;5650;52.700;7.306;2023-05-29T03:39:36;22.88;;;3.88;;
11187;SDS011;5650;52.700;7.306;2023-05-29T03:42:03;25.60;;;4.53;;
11187;SDS011;5650;52.700;7.306;2023-05-29T03:44:31;20.70;;;4.60;;
11187;SDS011;5650;52.700;7.306;2023-05-29T03:46:58;22.08;;;4.07;;
11187;SDS011;5650;52.700;7.306;2023-05-29T03:49:25;17.60;;;3.55;;
11187;SDS011;5650;52.700;7.306;2023-05-29T03:51:57;15.70;;;4.00;;
11187;SDS011;5650;52.700;7.306;2023-05-29T03:54:24;23.95;;;4.32;;
11187;SDS011;5650;52.700;7.306;2023-05-29T03:56:58;20.83;;;4.15;;
11187;SDS011;5650;52.700;7.306;2023-05-29T03:59:31;19.55;;;4.13;;
11187;SDS011;5650;52.700;7.306;2023-05-29T04:01:58;22.85;;;3.97;;
11187;SDS011;5650;52.700;7.306;2023-05-29T04:04:28;20.77;;;3.78;;
11187;SDS011;5650;52.700;7.306;2023-05-29T04:06:57;19.40;;;4.20;;
11187;SDS011;5650;52.700;7.306;2023-05-29T04:09:27;19.90;;;3.97;;
11187;SDS011;5650;52.700;7.306;2023-05-29T04:12:06;19.38;;;4.22;;
11187;SDS011;5650;52.700;7.306;2023-05-29T04:14:38;15.45;;;3.45;;
11187;SDS011;5650;52.700;7.306;2023-05-29T04:17:12;17.05;;;3.60;;
11187;SDS011;5650;52.700;7.306;2023-05-29T04:19:42;19.38;;;4.30;;
11187;SDS011;5650;52.700;7.306;2023-05-29T04:22:10;13.52;;;3.80;;
11187;SDS011;5650;52.700;7.306;2023-05-29T04:24:38;15.30;;;3.35;;
11187;SDS011;5650;52.700;7.306;2023-05-29T04:27:12;25.02;;;5.03;;
11187;SDS011;5650;52.700;7.306;2023-05-29T04:29:40;15.77;;;3.47;;
11187;SDS011;5650;52.700;7.306;2023-05-29T04:32:08;19.85;;;3.60;;
11187;SDS011;5650;52.700;7.306;2023-05-29T04:34:36;17.88;;;4.15;;
11187;SDS011;5650;52.700;7.306;2023-05-29T04:37:11;20.92;;;4.07;;
11187;SDS011;5650;52.700;7.306;2023-05-29T04:39:46;23.13;;;3.85;;
11187;SDS011;5650;52.700;7.306;2023-05-29T04:42:14;16.70;;;3.28;;
11187;SDS011;5650;52.700;7.306;2023-05-29T04:44:47;17.63;;;3.65;;
11187;SDS011;5650;52.700;7.306;2023-05-29T04:47:20;21.33;;;4.10;;
11187;SDS011;5650;52.700;7.306;2023-05-29T04:49:57;19.75;;;3.75;;
11187;SDS011;5650;52.700;7.306;2023-05-29T04:52:26;15.15;;;3.60;;
11187;SDS011;5650;52.700;7.306;2023-05-29T04:54:56;12.95;;;3.03;;
11187;SDS011;5650;52.700;7.306;2023-05-29T04:57:26;16.13;;;3.95;;
11187;SDS011;5650;52.700;7.306;2023-05-29T04:59:56;19.75;;;4.55;;
11187;SDS011;5650;52.700;7.306;2023-05-29T05:02:29;15.52;;;3.88;;
11187;SDS011;5650;52.700;7.306;2023-05-29T05:04:57;22.02;;;4.07;;
11187;SDS011;5650;52.700;7.306;2023-05-29T05:07:25;17.73;;;3.90;;
11187;SDS011;5650;52.700;7.306;2023-05-29T05:09:53;22.92;;;4.35;;
11187;SDS011;5650;52.700;7.306;2023-05-29T05:12:20;15.45;;;3.30;;
11187;SDS011;5650;52.700;7.306;2023-05-29T05:14:47;12.23;;;3.40;;
11187;SDS011;5650;52.700;7.306;2023-05-29T05:17:14;13.55;;;3.97;;
11187;SDS011;5650;52.700;7.306;2023-05-29T05:19:45;16.77;;;3.60;;
11187;SDS011;5650;52.700;7.306;2023-05-29T05:22:17;14.00;;;3.70;;
11187;SDS011;5650;52.700;7.306;2023-05-29T05:24:46;15.20;;;3.97;;
11187;SDS011;5650;52.700;7.306;2023-05-29T05:27:16;12.10;;;2.92;;
11187;SDS011;5650;52.700;7.306;2023-05-29T05:29:43;17.48;;;3.65;;
11187;SDS011;5650;52.700;7.306;2023-05-29T05:32:13;16.42;;;3.63;;
11187;SDS011;5650;52.700;7.306;2023-05-29T05:34:40;16.60;;;3.72;;
11187;SDS011;5650;52.700;7.306;2023-05-29T05:37:07;14.75;;;3.60;;
11187;SDS011;5650;52.700;7.306;2023-05-29T05:39:38;10.95;;;3.00;;
11187;SDS011;5650;52.700;7.306;2023-05-29T05:42:07;13.20;;;3.35;;
11187;SDS011;5650;52.700;7.306;2023-05-29T05:44:34;20.05;;;3.78;;
11187;SDS011;5650;52.700;7.306;2023-05-29T05:47:04;13.55;;;3.50;;
11187;SDS011;5650;52.700;7.306;2023-05-29T05:49:34;14.05;;;3.22;;
11187;SDS011;5650;52.700;7.306;2023-05-29T05:52:02;14.05;;;3.75;;
11187;SDS011;5650;52.700;7.306;2023-05-29T05:54:29;16.48;;;3.83;;
11187;SDS011;5650;52.700;7.306;2023-05-29T05:56:56;12.93;;;3.70;;
11187;SDS011;5650;52.700;7.306;2023-05-29T05:59:25;17.35;;;3.88;;
11187;SDS011;5650;52.700;7.306;2023-05-29T06:01:52;15.65;;;3.80;;
11187;SDS011;5650;52.700;7.306;2023-05-29T06:04:19;12.00;;;3.42;;
11187;SDS011;5650;52.700;7.306;2023-05-29T06:06:46;13.20;;;3.85;;
11187;SDS011;5650;52.700;7.306;2023-05-29T06:09:16;13.38;;;3.47;;
11187;SDS011;5650;52.700;7.306;2023-05-29T06:11:44;16.02;;;3.75;;
11187;SDS011;5650;52.700;7.306;2023-05-29T06:14:11;13.63;;;3.28;;
11187;SDS011;5650;52.700;7.306;2023-05-29T06:16:48;14.95;;;3.72;;
11187;SDS011;5650;52.700;7.306;2023-05-29T06:19:16;15.05;;;3.10;;
11187;SDS011;5650;52.700;7.306;2023-05-29T06:21:43;11.73;;;3.58;;
11187;SDS011;5650;52.700;7.306;2023-05-29T06:24:13;12.35;;;3.60;;
11187;SDS011;5650;52.700;7.306;2023-05-29T06:26:53;15.60;;;4.00;;
11187;SDS011;5650;52.700;7.306;2023-05-29T06:29:23;11.48;;;3.17;;
11187;SDS011;5650;52.700;7.306;2023-05-29T06:31:54;12.32;;;3.35;;
11187;SDS011;5650;52.700;7.306;2023-05-29T06:34:21;11.88;;;3.15;;
11187;SDS011;5650;52.700;7.306;2023-05-29T06:36:48;15.05;;;3.95;;
11187;SDS011;5650;52.700;7.306;2023-05-29T06:39:18;10.38;;;3.00;;
11187;SDS011;5650;52.700;7.306;2023-05-29T06:41:47;10.30;;;3.72;;
11187;SDS011;5650;52.700;7.306;2023-05-29T06:44:14;10.45;;;3.35;;
11187;SDS011;5650;52.700;7.306;2023-05-29T06:46:44;11.30;;;3.22;;
11187;SDS011;5650;52.700;7.306;2023-05-29T06:49:12;13.82;;;3.45;;
11187;SDS011;5650;52.700;7.306;2023-05-29T06:51:39;11.43;;;3.78;;
11187;SDS011;5650;52.700;7.306;2023-05-29T06:54:12;18.13;;;4.30;;
11187;SDS011;5650;52.700;7.306;2023-05-29T06:56:46;12.25;;;3.92;;
11187;SDS011;5650;52.700;7.306;2023-05-29T06:59:13;13.02;;;3.15;;
11187;SDS011;5650;52.700;7.306;2023-05-29T07:01:43;16.05;;;3.70;;
11187;SDS011;5650;52.700;7.306;2023-05-29T07:04:21;12.48;;;3.38;;
11187;SDS011;5650;52.700;7.306;2023-05-29T07:06:51;11.73;;;3.05;;
11187;SDS011;5650;52.700;7.306;2023-05-29T07:09:18;10.60;;;3.20;;
11187;SDS011;5650;52.700;7.306;2023-05-29T07:11:46;16.90;;;4.43;;
11187;SDS011;5650;52.700;7.306;2023-05-29T07:14:19;10.43;;;3.05;;
11187;SDS011;5650;52.700;7.306;2023-05-29T07:16:46;15.93;;;3.95;;
11187;SDS011;5650;52.700;7.306;2023-05-29T07:19:20;13.65;;;3.95;;
11187;SDS011;5650;52.700;7.306;2023-05-29T07:21:48;11.77;;;3.25;;
11187;SDS011;5650;52.700;7.306;2023-05-29T07:24:15;13.18;;;3.42;;
11187;SDS011;5650;52.700;7.306;2023-05-29T07:26:45;11.15;;;3.90;;
11187;SDS011;5650;52.700;7.306;2023-05-29T07:29:12;13.27;;;3.42;;
11187;SDS011;5650;52.700;7.306;2023-05-29T07:31:41;12.55;;;3.28;;
11187;SDS011;5650;52.700;7.306;2023-05-29T07:34:09;13.77;;;3.90;;
11187;SDS011;5650;52.700;7.306;2023-05-29T07:39:27;11.20;;;3.90;;
11187;SDS011;5650;52.700;7.306;2023-05-29T07:41:55;14.00;;;3.22;;
11187;SDS011;5650;52.700;7.306;2023-05-29T07:44:22;14.27;;;3.80;;
11187;SDS011;5650;52.700;7.306;2023-05-29T07:46:49;15.15;;;3.85;;
11187;SDS011;5650;52.700;7.306;2023-05-29T07:49:17;15.93;;;3.88;;
11187;SDS011;5650;52.700;7.306;2023-05-29T07:51:53;12.43;;;3.92;;
11187;SDS011;5650;52.700;7.306;2023-05-29T07:54:28;13.48;;;3.47;;
11187;SDS011;5650;52.700;7.306;2023-05-29T07:56:57;11.80;;;3.70;;
11187;SDS011;5650;52.700;7.306;2023-05-29T07:59:25;14.35;;;3.97;;
11187;SDS011;5650;52.700;7.306;2023-05-29T08:01:52;11.05;;;3.08;;
11187;SDS011;5650;52.700;7.306;2023-05-29T08:04:23;14.77;;;3.58;;
11187;SDS011;5650;52.700;7.306;2023-05-29T08:06:59;14.68;;;3.22;;
11187;SDS011;5650;52.700;7.306;2023-05-29T08:09:31;12.60;;;3.65;;
11187;SDS011;5650;52.700;7.306;2023-05-29T08:12:02;12.82;;;3.78;;
11187;SDS011;5650;52.700;7.306;2023-05-29T08:14:30;11.60;;;3.75;;
11187;SDS011;5650;52.700;7.306;2023-05-29T08:17:00;9.77;;;3.85;;
11187;SDS011;5650;52.700;7.306;2023-05-29T08:19:28;13.05;;;3.40;;
11187;SDS011;5650;52.700;7.306;2023-05-29T08:21:57;15.05;;;3.83;;
11187;SDS011;5650;52.700;7.306;2023-05-29T08:24:28;10.43;;;3.70;;
11187;SDS011;5650;52.700;7.306;2023-05-29T08:26:56;14.50;;;4.13;;
11187;SDS011;5650;52.700;7.306;2023-05-29T08:29:28;13.80;;;3.60;;
11187;SDS011;5650;52.700;7.306;2023-05-29T08:31:57;19.58;;;4.25;;
11187;SDS011;5650;52.700;7.306;2023-05-29T08:34:30;14.27;;;3.75;;
11187;SDS011;5650;52.700;7.306;2023-05-29T08:37:00;15.23;;;3.97;;
11187;SDS011;5650;52.700;7.306;2023-05-29T08:39:36;15.55;;;3.78;;
11187;SDS011;5650;52.700;7.306;2023-05-29T08:42:06;13.00;;;3.92;;
11187;SDS011;5650;52.700;7.306;2023-05-29T08:44:36;8.38;;;2.95;;
11187;SDS011;5650;52.700;7.306;2023-05-29T08:47:12;13.32;;;3.63;;
11187;SDS011;5650;52.700;7.306;2023-05-29T08:49:45;13.02;;;3.78;;
11187;SDS011;5650;52.700;7.306;2023-05-29T08:52:19;10.85;;;3.63;;
11187;SDS011;5650;52.700;7.306;2023-05-29T08:54:51;13.45;;;4.07;;
11187;SDS011;5650;52.700;7.306;2023-05-29T08:57:21;15.85;;;3.85;;
11187;SDS011;5650;52.700;7.306;2023-05-29T08:59:50;15.32;;;3.80;;
11187;SDS011;5650;52.700;7.306;2023-05-29T09:02:18;14.27;;;3.75;;
11187;SDS011;5650;52.700;7.306;2023-05-29T09:04:48;12.90;;;3.90;;
11187;SDS011;5650;52.700;7.306;2023-05-29T09:07:18;16.80;;;3.92;;
11187;SDS011;5650;52.700;7.306;2023-05-29T09:09:45;18.20;;;4.88;;
11187;SDS011;5650;52.700;7.306;2023-05-29T09:12:16;12.60;;;4.07;;
11187;SDS011;5650;52.700;7.306;2023-05-29T09:14:51;17.40;;;3.53;;
11187;SDS011;5650;52.700;7.306;2023-05-29T09:17:24;13.57;;;4.00;;
11187;SDS011;5650;52.700;7.306;2023-05-29T09:20:00;12.77;;;3.95;;
11187;SDS011;5650;52.700;7.306;2023-05-29T09:22:44;11.60;;;4.22;;
11187;SDS011;5650;52.700;7.306;2023-05-29T09:25:22;13.48;;;3.55;;
11187;SDS011;5650;52.700;7.306;2023-05-29T09:27:56;17.02;;;4.10;;
11187;SDS011;5650;52.700;7.306;2023-05-29T09:30:32;14.82;;;4.47;;
11187;SDS011;5650;52.700;7.306;2023-05-29T09:33:04;23.45;;;4.28;;
11187;SDS011;5650;52.700;7.306;2023-05-29T09:38:21;18.13;;;4.03;;
11187;SDS011;5650;52.700;7.306;2023-05-29T09:40:49;16.65;;;4.00;;
11187;SDS011;5650;52.700;7.306;2023-05-29T09:43:24;12.20;;;3.53;;
11187;SDS011;5650;52.700;7.306;2023-05-29T09:45:51;9.80;;;3.67;;
11187;SDS011;5650;52.700;7.306;2023-05-29T09:48:22;13.65;;;3.80;;
11187;SDS011;5650;52.700;7.306;2023-05-29T09:50:50;13.32;;;3.33;;
11187;SDS011;5650;52.700;7.306;2023-05-29T09:53:23;13.63;;;3.80;;
11187;SDS011;5650;52.700;7.306;2023-05-29T09:55:52;17.30;;;4.05;;
11187;SDS011;5650;52.700;7.306;2023-05-29T09:58:31;10.85;;;3.50;;
11187;SDS011;5650;52.700;7.306;2023-05-29T10:01:00;11.80;;;3.88;;
11187;SDS011;5650;52.700;7.306;2023-05-29T10:03:28;16.38;;;3.90;;
11187;SDS011;5650;52.700;7.306;2023-05-29T10:06:00;10.57;;;3.50;;
11187;SDS011;5650;52.700;7.306;2023-05-29T10:08:32;13.52;;;4.70;;
11187;SDS011;5650;52.700;7.306;2023-05-29T10:11:04;12.70;;;3.35;;
11187;SDS011;5650;52.700;7.306;2023-05-29T10:13:39;13.30;;;4.00;;
11187;SDS011;5650;52.700;7.306;2023-05-29T10:16:14;18.73;;;3.72;;
11187;SDS011;5650;52.700;7.306;2023-05-29T10:18:43;14.85;;;3.67;;
11187;SDS011;5650;52.700;7.306;2023-05-29T10:21:20;11.82;;;3.78;;
11187;SDS011;5650;52.700;7.306;2023-05-29T10:23:51;12.02;;;3.58;;
11187;SDS011;5650;52.700;7.306;2023-05-29T10:26:19;15.48;;;4.22;;
11187;SDS011;5650;52.700;7.306;2023-05-29T10:28:54;11.25;;;3.80;;
11187;SDS011;5650;52.700;7.306;2023-05-29T10:31:32;18.77;;;4.20;;
11187;SDS011;5650;52.700;7.306;2023-05-29T10:34:08;20.13;;;4.43;;
11187;SDS011;5650;52.700;7.306;2023-05-29T10:36:49;17.35;;;4.35;;
11187;SDS011;5650;52.700;7.306;2023-05-29T10:39:43;15.10;;;4.28;;
11187;SDS011;5650;52.700;7.306;2023-05-29T10:51:24;11.95;;;3.78;;
11187;SDS011;5650;52.700;7.306;2023-05-29T10:53:56;18.63;;;4.60;;
11187;SDS011;5650;52.700;7.306;2023-05-29T10:56:23;18.20;;;4.22;;
11187;SDS011;5650;52.700;7.306;2023-05-29T10:59:01;21.10;;;4.00;;
11187;SDS011;5650;52.700;7.306;2023-05-29T11:01:37;12.80;;;3.42;;
11187;SDS011;5650;52.700;7.306;2023-05-29T11:06:56;15.18;;;4.07;;
11187;SDS011;5650;52.700;7.306;2023-05-29T11:09:29;20.40;;;4.45;;
11187;SDS011;5650;52.700;7.306;2023-05-29T11:12:12;15.48;;;3.95;;
11187;SDS011;5650;52.700;7.306;2023-05-29T11:14:56;11.88;;;3.58;;
11187;SDS011;5650;52.700;7.306;2023-05-29T11:17:30;14.57;;;3.78;;
11187;SDS011;5650;52.700;7.306;2023-05-29T11:20:02;13.63;;;4.45;;
11187;SDS011;5650;52.700;7.306;2023-05-29T11:22:43;14.60;;;3.97;;
11187;SDS011;5650;52.700;7.306;2023-05-29T11:25:26;14.35;;;3.58;;
11187;SDS011;5650;52.700;7.306;2023-05-29T11:28:00;15.13;;;3.92;;
11187;SDS011;5650;52.700;7.306;2023-05-29T11:33:29;19.65;;;4.20;;
11187;SDS011;5650;52.700;7.306;2023-05-29T11:36:08;17.10;;;4.57;;
11187;SDS011;5650;52.700;7.306;2023-05-29T11:38:41;14.18;;;3.92;;
11187;SDS011;5650;52.700;7.306;2023-05-29T11:41:09;18.02;;;4.32;;
11187;SDS011;5650;52.700;7.306;2023-05-29T11:43:36;9.13;;;3.17;;
11187;SDS011;5650;52.700;7.306;2023-05-29T11:46:13;19.70;;;4.10;;
11187;SDS011;5650;52.700;7.306;2023-05-29T11:48:53;16.95;;;4.05;;
11187;SDS011;5650;52.700;7.306;2023-05-29T11:51:20;14.07;;;3.50;;
11187;SDS011;5650;52.700;7.306;2023-05-29T11:53:47;15.82;;;4.57;;
11187;SDS011;5650;52.700;7.306;2023-05-29T11:56:23;15.00;;;4.35;;
11187;SDS011;5650;52.700;7.306;2023-05-29T11:58:53;16.95;;;3.85;;
11187;SDS011;5650;52.700;7.306;2023-05-29T12:01:22;16.42;;;4.32;;
11187;SDS011;5650;52.700;7.306;2023-05-29T12:03:55;15.57;;;3.80;;
11187;SDS011;5650;52.700;7.306;2023-05-29T12:06:35;16.92;;;3.92;;
11187;SDS011;5650;52.700;7.306;2023-05-29T12:09:03;17.10;;;3.92;;
11187;SDS011;5650;52.700;7.306;2023-05-29T12:11:30;18.48;;;4.53;;
11187;SDS011;5650;52.700;7.306;2023-05-29T12:14:08;12.60;;;4.38;;
11187;SDS011;5650;52.700;7.306;2023-05-29T12:16:35;13.63;;;3.65;;
11187;SDS011;5650;52.700;7.306;2023-05-29T12:19:10;13.77;;;3.72;;
11187;SDS011;5650;52.700;7.306;2023-05-29T12:21:49;19.10;;;4.10;;
11187;SDS011;5650;52.700;7.306;2023-05-29T12:24:19;13.05;;;3.15;;
11187;SDS011;5650;52.700;7.306;2023-05-29T12:26:47;11.07;;;3.72;;
11187;SDS011;5650;52.700;7.306;2023-05-29T12:29:16;14.98;;;3.65;;
11187;SDS011;5650;52.700;7.306;2023-05-29T12:31:43;15.00;;;3.90;;
11187;SDS011;5650;52.700;7.306;2023-05-29T12:34:11;12.48;;;3.28;;
11187;SDS011;5650;52.700;7.306;2023-05-29T12:36:43;13.55;;;3.53;;
11187;SDS011;5650;52.700;7.306;2023-05-29T12:39:16;11.98;;;3.38;;
11187;SDS011;5650;52.700;7.306;2023-05-29T12:41:43;13.75;;;3.50;;
11187;SDS011;5650;52.700;7.306;2023-05-29T12:44:10;10.35;;;3.28;;
11187;SDS011;5650;52.700;7.306;2023-05-29T12:46:38;14.02;;;4.25;;
11187;SDS011;5650;52.700;7.306;2023-05-29T12:49:21;18.38;;;4.30;;
11187;SDS011;5650;52.700;7.306;2023-05-29T12:51:50;12.93;;;3.55;;
11187;SDS011;5650;52.700;7.306;2023-05-29T12:54:27;13.32;;;3.72;;
11187;SDS011;5650;52.700;7.306;2023-05-29T12:56:57;15.48;;;4.22;;
11187;SDS011;5650;52.700;7.306;2023-05-29T12:59:30;14.38;;;3.42;;
11187;SDS011;5650;52.700;7.306;2023-05-29T13:01:59;13.48;;;3.80;;
11187;SDS011;5650;52.700;7.306;2023-05-29T13:04:28;15.15;;;3.75;;
11187;SDS011;5650;52.700;7.306;2023-05-29T13:06:58;17.70;;;3.83;;
11187;SDS011;5650;52.700;7.306;2023-05-29T13:09:31;17.55;;;4.07;;
11187;SDS011;5650;52.700;7.306;2023-05-29T13:12:11;18.20;;;4.00;;
11187;SDS011;5650;52.700;7.306;2023-05-29T13:14:44;15.95;;;4.45;;
11187;SDS011;5650;52.700;7.306;2023-05-29T13:17:11;14.88;;;3.65;;
11187;SDS011;5650;52.700;7.306;2023-05-29T13:19:44;16.73;;;3.90;;
11187;SDS011;5650;52.700;7.306;2023-05-29T13:22:11;14.07;;;3.95;;
11187;SDS011;5650;52.700;7.306;2023-05-29T13:24:38;16.10;;;4.05;;
11187;SDS011;5650;52.700;7.306;2023-05-29T13:27:05;16.02;;;4.15;;
11187;SDS011;5650;52.700;7.306;2023-05-29T13:29:33;17.55;;;4.15;;
11187;SDS011;5650;52.700;7.306;2023-05-29T13:32:14;16.48;;;3.75;;
11187;SDS011;5650;52.700;7.306;2023-05-29T13:34:55;9.27;;;3.47;;
11187;SDS011;5650;52.700;7.306;2023-05-29T13:37:23;16.58;;;3.80;;
11187;SDS011;5650;52.700;7.306;2023-05-29T13:39:52;15.75;;;4.10;;
11187;SDS011;5650;52.700;7.306;2023-05-29T13:42:19;17.38;;;4.20;;
11187;SDS011;5650;52.700;7.306;2023-05-29T13:44:47;12.82;;;3.72;;
11187;SDS011;5650;52.700;7.306;2023-05-29T13:47:15;13.98;;;3.13;;
11187;SDS011;5650;52.700;7.306;2023-05-29T13:49:42;14.95;;;3.47;;
11187;SDS011;5650;52.700;7.306;2023-05-29T13:52:11;15.20;;;3.63;;
11187;SDS011;5650;52.700;7.306;2023-05-29T13:54:39;13.57;;;3.20;;
11187;SDS011;5650;52.700;7.306;2023-05-29T13:57:06;11.65;;;3.60;;
11187;SDS011;5650;52.700;7.306;2023-05-29T13:59:33;12.93;;;3.28;;
11187;SDS011;5650;52.700;7.306;2023-05-29T14:02:06;14.55;;;3.03;;
11187;SDS011;5650;52.700;7.306;2023-05-29T14:04:34;8.75;;;2.90;;
11187;SDS011;5650;52.700;7.306;2023-05-29T14:07:09;10.90;;;3.22;;
11187;SDS011;5650;52.700;7.306;2023-05-29T14:09:41;9.82;;;3.05;;
11187;SDS011;5650;52.700;7.306;2023-05-29T14:12:18;12.95;;;3.75;;
11187;SDS011;5650;52.700;7.306;2023-05-29T14:14:49;11.93;;;3.42;;
11187;SDS011;5650;52.700;7.306;2023-05-29T14:17:18;11.20;;;2.83;;
11187;SDS011;5650;52.700;7.306;2023-05-29T14:19:45;15.00;;;3.30;;
11187;SDS011;5650;52.700;7.306;2023-05-29T14:22:21;15.27;;;3.63;;
11187;SDS011;5650;52.700;7.306;2023-05-29T14:24:51;12.88;;;3.33;;
11187;SDS011;5650;52.700;7.306;2023-05-29T14:27:24;10.00;;;3.10;;
11187;SDS011;5650;52.700;7.306;2023-05-29T14:29:51;13.00;;;3.33;;
11187;SDS011;5650;52.700;7.306;2023-05-29T14:32:18;11.40;;;3.30;;
11187;SDS011;5650;52.700;7.306;2023-05-29T14:34:54;14.85;;;3.58;;
11187;SDS011;5650;52.700;7.306;2023-05-29T14:37:24;16.10;;;4.22;;
11187;SDS011;5650;52.700;7.306;2023-05-29T14:39:51;11.05;;;3.47;;
11187;SDS011;5650;52.700;7.306;2023-05-29T14:42:18;12.23;;;3.72;;
11187;SDS011;5650;52.700;7.306;2023-05-29T14:44:46;10.50;;;3.20;;
11187;SDS011;5650;52.700;7.306;2023-05-29T14:47:28;9.98;;;3.05;;
11187;SDS011;5650;52.700;7.306;2023-05-29T14:49:58;11.70;;;2.88;;
11187;SDS011;5650;52.700;7.306;2023-05-29T14:52:39;13.38;;;3.00;;
11187;SDS011;5650;52.700;7.306;2023-05-29T14:55:06;11.35;;;3.15;;
11187;SDS011;5650;52.700;7.306;2023-05-29T14:57:34;13.45;;;3.55;;
11187;SDS011;5650;52.700;7.306;2023-05-29T15:00:10;13.10;;;3.60;;
11187;SDS011;5650;52.700;7.306;2023-05-29T15:02:42;10.60;;;3.25;;
11187;SDS011;5650;52.700;7.306;2023-05-29T15:05:09;11.65;;;3.20;;
11187;SDS011;5650;52.700;7.306;2023-05-29T15:07:36;13.73;;;3.22;;
11187;SDS011;5650;52.700;7.306;2023-05-29T15:10:08;9.57;;;3.10;;
11187;SDS011;5650;52.700;7.306;2023-05-29T15:12:42;14.88;;;3.28;;
11187;SDS011;5650;52.700;7.306;2023-05-29T15:15:15;12.43;;;3.53;;
11187;SDS011;5650;52.700;7.306;2023-05-29T15:17:45;13.82;;;3.75;;
11187;SDS011;5650;52.700;7.306;2023-05-29T15:20:15;12.00;;;3.20;;
11187;SDS011;5650;52.700;7.306;2023-05-29T15:22:46;12.52;;;3.20;;
11187;SDS011;5650;52.700;7.306;2023-05-29T15:25:17;11.88;;;3.00;;
11187;SDS011;5650;52.700;7.306;2023-05-29T15:27:45;11.90;;;3.25;;
11187;SDS011;5650;52.700;7.306;2023-05-29T15:30:13;9.98;;;2.88;;
11187;SDS011;5650;52.700;7.306;2023-05-29T15:32:42;13.73;;;3.35;;
11187;SDS011;5650;52.700;7.306;2023-05-29T15:35:10;10.57;;;3.17;;
11187;SDS011;5650;52.700;7.306;2023-05-29T15:37:58;11.05;;;3.15;;
11187;SDS011;5650;52.700;7.306;2023-05-29T15:40:26;11.48;;;2.88;;